Hayt Corners, New York
Current Conditions -  °F | °C
As of 3:53 AM on Saturday 20 Dec 2014 (Local Time) from KPEO Reporting Station
Overcast Overcast  
Wind Chill: 22°   Ceiling: 1900
Heat Index: 27°   Visibility: 10mi
Dew Point: 20°   Wind: 5mph
Humidity: 75%   Direction: 340°NNW
Pressure: 30.2"   Gusts: NA
Location:  42.6756°N, 76.8051°W
Report Text: KPEO 200853Z AUTO 34004KT 10SM OVC019 M03/M07 A3020 RMK AO2 SLP239 T10281067 55005
Loading
Personal Weather Stations






























Interactive Weather Map New forecast layout! Learn more

10-Day Weather Forecast

Advertisements
Track Severe Weather on mobile